Time;durP1;ratioP1;P1;durP2;ratioP2;P2;SDS_P1;SDS_P2;PMS_P1;PMS_P2;Temp;Humidity;BMP_temperature;BMP_pressure;BME280_temperature;BME280_humidity;BME280_pressure;Samples;Min_cycle;Max_cycle;Signal;HPM_P1;HPM_P2
2021/03/10 00:00:17;;;;;;;46.45;21.65;;;-0.80;52.80;;;;;;5076440;28;20405;-85
2021/03/10 00:02:43;;;;;;;37.08;16.08;;;-0.90;52.80;;;;;;5077297;28;20055;-86
2021/03/10 00:05:09;;;;;;;38.35;16.52;;;-0.90;52.70;;;;;;5076120;28;20378;-85
2021/03/10 00:07:36;;;;;;;39.17;17.75;;;-1.00;53.40;;;;;;5077512;28;20021;-85
2021/03/10 00:10:03;;;;;;;44.00;19.02;;;-0.90;52.90;;;;;;5075844;28;20063;-85
2021/03/10 00:12:29;;;;;;;46.45;20.63;;;-1.00;52.90;;;;;;5076760;28;20451;-85
2021/03/10 00:14:55;;;;;;;47.15;20.30;;;-1.00;52.90;;;;;;5076778;28;20020;-85
2021/03/10 00:17:20;;;;;;;49.97;21.20;;;-0.90;52.90;;;;;;5063018;28;20079;-85
2021/03/10 00:19:47;;;;;;;47.70;20.60;;;-0.90;52.90;;;;;;5056783;28;20462;-85
2021/03/10 00:22:12;;;;;;;36.85;17.17;;;-0.90;52.90;;;;;;5057006;28;20028;-85
2021/03/10 00:24:38;;;;;;;44.80;21.05;;;-0.90;52.90;;;;;;5055953;28;20017;-85
2021/03/10 00:27:04;;;;;;;42.58;18.45;;;-0.90;52.80;;;;;;5056813;28;20029;-85
2021/03/10 00:29:30;;;;;;;51.95;19.10;;;-0.90;52.80;;;;;;5056987;28;20143;-85
2021/03/10 00:31:56;;;;;;;58.20;24.65;;;-0.90;52.70;;;;;;5069996;28;20450;-85
2021/03/10 00:34:21;;;;;;;54.80;22.98;;;-0.90;52.70;;;;;;5075968;28;20028;-85
2021/03/10 00:36:47;;;;;;;65.75;29.77;;;-0.90;52.80;;;;;;5077476;28;20111;-86
2021/03/10 00:39:13;;;;;;;70.10;28.38;;;-0.80;52.80;;;;;;5077600;28;20024;-86
2021/03/10 00:41:38;;;;;;;84.80;31.65;;;-0.90;52.70;;;;;;5076129;28;20016;-86
2021/03/10 00:44:04;;;;;;;61.45;25.48;;;-0.90;52.80;;;;;;5076311;28;20027;-85
2021/03/10 00:46:30;;;;;;;69.75;26.00;;;-0.90;52.80;;;;;;5076080;28;20511;-85
2021/03/10 00:48:56;;;;;;;52.80;21.55;;;-1.00;52.90;;;;;;5075900;28;20422;-85
2021/03/10 00:51:21;;;;;;;57.58;22.58;;;-1.00;52.90;;;;;;5076072;28;20166;-85
2021/03/10 00:53:47;;;;;;;45.40;18.90;;;-1.00;52.90;;;;;;5058589;28;20045;-86
2021/03/10 00:56:13;;;;;;;41.13;18.67;;;-1.00;53.00;;;;;;5056202;28;20484;-86
2021/03/10 00:58:38;;;;;;;47.75;20.88;;;-1.00;53.00;;;;;;5056698;28;20017;-85
2021/03/10 01:01:04;;;;;;;29.30;14.55;;;-1.00;53.00;;;;;;5055042;28;20017;-85
2021/03/10 01:03:30;;;;;;;30.20;12.52;;;-0.90;53.10;;;;;;5056163;28;20021;-85
2021/03/10 01:05:55;;;;;;;45.38;18.58;;;-0.90;53.00;;;;;;5054759;28;20032;-85
2021/03/10 01:08:22;;;;;;;30.85;14.10;;;-0.90;53.00;;;;;;5055802;28;20039;-85
2021/03/10 01:10:48;;;;;;;30.00;14.20;;;-0.90;53.00;;;;;;5055769;28;20036;-85
2021/03/10 01:13:14;;;;;;;26.75;12.35;;;-0.90;52.90;;;;;;5055436;28;20101;-86
2021/03/10 01:15:40;;;;;;;34.90;15.52;;;-0.90;52.90;;;;;;5055817;28;20070;-85
2021/03/10 01:18:06;;;;;;;38.70;16.15;;;-0.80;52.90;;;;;;5060206;28;20443;-85
2021/03/10 01:20:32;;;;;;;27.58;13.32;;;-0.80;52.90;;;;;;5062161;28;20434;-85
2021/03/10 01:22:57;;;;;;;34.20;15.60;;;-0.80;52.90;;;;;;5074880;28;20343;-85
2021/03/10 01:25:24;;;;;;;37.80;17.00;;;-0.80;52.80;;;;;;5075729;28;20017;-85
2021/03/10 01:27:50;;;;;;;35.83;15.25;;;-0.70;52.80;;;;;;5075318;28;20032;-86
2021/03/10 01:30:16;;;;;;;46.22;19.73;;;-0.70;52.80;;;;;;5075798;28;20024;-85
2021/03/10 01:32:42;;;;;;;53.95;21.73;;;-0.70;52.70;;;;;;5075939;28;20032;-85
2021/03/10 01:35:09;;;;;;;55.33;21.52;;;-0.70;52.70;;;;;;5074972;28;20052;-86
2021/03/10 01:37:35;;;;;;;54.92;22.70;;;-0.70;52.60;;;;;;5075778;28;20370;-86
2021/03/10 01:40:05;;;;;;;53.00;22.08;;;-0.70;52.60;;;;;;5074747;28;20472;-85
2021/03/10 01:42:31;;;;;;;48.20;20.95;;;-0.70;52.60;;;;;;5075794;28;20046;-86
2021/03/10 01:44:56;;;;;;;47.47;21.23;;;-0.70;52.50;;;;;;5059066;28;20438;-86
2021/03/10 01:47:22;;;;;;;55.88;26.30;;;-0.70;52.50;;;;;;5054647;28;20025;-86
2021/03/10 01:49:48;;;;;;;53.45;26.80;;;-0.70;52.50;;;;;;5055104;28;20021;-85
2021/03/10 01:52:14;;;;;;;56.30;28.25;;;-0.70;52.40;;;;;;5055249;28;20027;-86
2021/03/10 01:54:39;;;;;;;58.47;28.83;;;-0.70;52.60;;;;;;5055774;28;20029;-86
2021/03/10 01:57:06;;;;;;;52.58;26.33;;;-0.80;52.50;;;;;;5054596;28;20412;-84
2021/03/10 01:59:31;;;;;;;49.72;25.88;;;-0.80;52.60;;;;;;5056496;28;20109;-85
2021/03/10 02:01:57;;;;;;;43.55;21.08;;;-0.80;52.70;;;;;;5055529;28;20029;-86
2021/03/10 02:04:23;;;;;;;43.60;18.08;;;-0.80;52.70;;;;;;5055389;28;20025;-85
2021/03/10 02:07:13;;;;;;;41.35;18.35;;;-0.80;52.70;;;;;;5055848;28;20505;-86
2021/03/10 02:10:00;;;;;;;33.40;14.07;;;-0.80;52.80;;;;;;5056844;28;20025;-85
2021/03/10 02:12:44;;;;;;;28.25;14.02;;;-0.80;53.40;;;;;;5056047;28;20021;-84
2021/03/10 02:15:28;;;;;;;35.97;16.40;;;-0.90;52.90;;;;;;5055834;28;20359;-86
2021/03/10 02:18:03;;;;;;;28.33;13.73;;;-0.90;52.90;;;;;;5055312;28;20246;-86
2021/03/10 02:20:32;;;;;;;37.70;17.08;;;-0.90;52.80;;;;;;5055910;28;20024;-86
2021/03/10 02:23:11;;;;;;;32.83;14.15;;;-0.90;52.90;;;;;;5067934;28;20092;-85
2021/03/10 02:25:58;;;;;;;33.78;14.80;;;-0.90;53.00;;;;;;5065684;28;20032;-85
2021/03/10 02:28:25;;;;;;;37.75;16.88;;;-0.90;53.00;;;;;;5055646;28;20032;-85
2021/03/10 02:30:52;;;;;;;35.97;16.92;;;-0.90;53.00;;;;;;5055758;28;20101;-85
2021/03/10 02:33:24;;;;;;;36.20;15.57;;;-0.90;53.10;;;;;;5054596;28;20401;-85
2021/03/10 02:35:59;;;;;;;41.05;16.60;;;-0.90;53.10;;;;;;5055799;28;20029;-86
2021/03/10 02:38:26;;;;;;;48.97;19.63;;;-0.90;53.10;;;;;;5056361;28;20106;-86
2021/03/10 02:40:53;;;;;;;50.78;21.35;;;-0.90;53.10;;;;;;5056066;28;20032;-86
2021/03/10 02:43:21;;;;;;;55.55;22.20;;;-0.90;53.20;;;;;;5055396;28;20059;-86
2021/03/10 02:45:49;;;;;;;52.70;21.23;;;-0.90;53.20;;;;;;5055827;28;20021;-85
2021/03/10 02:48:15;;;;;;;62.45;25.33;;;-0.90;53.30;;;;;;5054952;28;20091;-86
2021/03/10 02:50:41;;;;;;;50.35;21.25;;;-0.90;53.40;;;;;;5059769;28;20365;-86
2021/03/10 02:53:08;;;;;;;46.33;21.10;;;-1.00;53.40;;;;;;5062956;28;20347;-86
2021/03/10 02:55:35;;;;;;;43.38;19.00;;;-1.00;53.50;;;;;;5063189;28;20009;-85
2021/03/10 02:58:01;;;;;;;48.78;19.33;;;-1.00;53.60;;;;;;5065006;28;20024;-86
2021/03/10 03:00:29;;;;;;;53.95;22.42;;;-1.00;53.60;;;;;;5066493;28;20098;-89
2021/03/10 03:02:54;;;;;;;52.95;20.45;;;-1.00;53.70;;;;;;5066045;28;20013;-85
2021/03/10 03:05:20;;;;;;;51.33;20.65;;;-1.00;53.70;;;;;;5071447;28;20027;-87
2021/03/10 03:07:47;;;;;;;47.25;20.00;;;-1.00;53.70;;;;;;5078365;28;20038;-86
2021/03/10 03:10:25;;;;;;;52.28;19.50;;;-1.00;53.80;;;;;;5078437;28;20020;-86
2021/03/10 03:12:51;;;;;;;47.67;19.15;;;-1.10;53.90;;;;;;5074116;28;20048;-87
2021/03/10 03:15:21;;;;;;;36.92;17.13;;;-1.10;53.90;;;;;;5070356;28;20370;-86
2021/03/10 03:17:48;;;;;;;36.70;16.58;;;-1.10;54.00;;;;;;5076896;28;20062;-86
2021/03/10 03:20:16;;;;;;;35.30;17.02;;;-1.10;54.00;;;;;;5077043;28;20027;-85
2021/03/10 03:22:53;;;;;;;41.88;16.30;;;-1.00;54.20;;;;;;5079047;28;20077;-86
2021/03/10 03:25:20;;;;;;;36.65;16.05;;;-1.10;54.20;;;;;;5078638;28;20025;-85
2021/03/10 03:27:50;;;;;;;38.13;16.83;;;-1.10;54.20;;;;;;5076307;28;20063;-86
2021/03/10 03:30:16;;;;;;;35.03;16.17;;;-1.10;54.40;;;;;;5062431;28;20028;-83
2021/03/10 03:32:44;;;;;;;31.67;14.23;;;-1.10;54.40;;;;;;5059155;28;20075;-83
2021/03/10 03:35:11;;;;;;;39.10;18.23;;;-1.10;54.40;;;;;;5065770;28;20025;-86
2021/03/10 03:37:38;;;;;;;41.92;17.85;;;-1.10;54.60;;;;;;5068929;28;20028;-86
2021/03/10 03:40:10;;;;;;;33.92;17.20;;;-1.10;54.60;;;;;;5066244;28;20107;-85
2021/03/10 03:42:36;;;;;;;40.03;18.15;;;-1.10;54.70;;;;;;5068335;28;20044;-85
2021/03/10 03:45:03;;;;;;;40.25;19.67;;;-1.10;54.70;;;;;;5066901;28;20029;-86
2021/03/10 03:47:29;;;;;;;43.67;20.10;;;-1.20;54.70;;;;;;5063105;28;20025;-87
2021/03/10 03:49:55;;;;;;;33.90;16.75;;;-1.20;54.70;;;;;;5058045;28;20033;-86
2021/03/10 03:52:21;;;;;;;33.50;15.10;;;-1.20;54.80;;;;;;5060288;28;20021;-86
2021/03/10 03:54:46;;;;;;;34.22;16.58;;;-1.20;54.80;;;;;;5060077;28;20021;-87
2021/03/10 03:57:12;;;;;;;33.70;16.50;;;-1.20;55.00;;;;;;5064635;28;20039;-86
2021/03/10 03:59:38;;;;;;;32.75;15.88;;;-1.20;55.00;;;;;;5063365;28;20021;-87
2021/03/10 04:02:03;;;;;;;36.70;17.17;;;-1.20;55.20;;;;;;5064474;28;20021;-85
2021/03/10 04:04:29;;;;;;;37.28;18.17;;;-1.20;55.20;;;;;;5064241;28;20035;-86
2021/03/10 04:06:55;;;;;;;41.78;20.42;;;-1.20;55.30;;;;;;5064215;28;20033;-87
2021/03/10 04:09:21;;;;;;;47.15;21.40;;;-1.10;55.20;;;;;;5063755;28;20084;-84
2021/03/10 04:11:48;;;;;;;44.53;19.13;;;-1.10;55.20;;;;;;5062239;28;20451;-85
2021/03/10 04:14:16;;;;;;;43.08;19.25;;;-1.10;55.20;;;;;;5057312;28;20189;-86
2021/03/10 04:16:42;;;;;;;37.63;18.17;;;-1.20;55.20;;;;;;5056081;28;20052;-87
2021/03/10 04:19:09;;;;;;;36.58;17.58;;;-1.20;55.30;;;;;;5057405;28;20020;-85
2021/03/10 04:21:35;;;;;;;48.30;19.42;;;-1.20;55.50;;;;;;5064702;28;20032;-85
2021/03/10 04:24:01;;;;;;;75.95;27.60;;;-1.20;55.60;;;;;;5070382;28;20028;-85
2021/03/10 04:26:27;;;;;;;60.97;23.90;;;-1.20;55.80;;;;;;5065126;28;20017;-85
2021/03/10 04:28:53;;;;;;;69.72;25.40;;;-1.20;55.90;;;;;;5061605;28;20025;-84
2021/03/10 04:31:18;;;;;;;64.97;25.42;;;-1.20;56.00;;;;;;5067554;28;20032;-85
2021/03/10 04:33:44;;;;;;;96.32;32.50;;;-1.20;56.00;;;;;;5071158;28;20021;-84
2021/03/10 04:36:10;;;;;;;85.93;29.08;;;-1.10;56.10;;;;;;5070914;28;20024;-86
2021/03/10 04:38:36;;;;;;;81.20;28.42;;;-1.10;56.20;;;;;;5072039;28;20029;-85
2021/03/10 04:41:03;;;;;;;80.68;28.45;;;-1.00;56.30;;;;;;5072456;28;20068;-86
2021/03/10 04:43:28;;;;;;;81.68;28.23;;;-1.00;56.30;;;;;;5072623;28;20092;-84
2021/03/10 04:45:54;;;;;;;63.65;25.83;;;-0.90;56.40;;;;;;5070685;28;20072;-84
2021/03/10 04:48:20;;;;;;;68.82;27.83;;;-0.90;56.40;;;;;;5070690;28;20083;-84
2021/03/10 04:50:47;;;;;;;74.35;29.48;;;-0.90;56.40;;;;;;5070633;28;20032;-84
2021/03/10 04:53:12;;;;;;;66.95;28.60;;;-0.80;56.30;;;;;;5071358;28;20032;-85
2021/03/10 04:55:38;;;;;;;74.65;28.33;;;-0.80;56.30;;;;;;5072279;28;20025;-84
2021/03/10 04:58:04;;;;;;;72.63;27.52;;;-0.70;56.30;;;;;;5072374;28;20047;-84
2021/03/10 05:00:30;;;;;;;95.47;34.72;;;-0.70;56.30;;;;;;5071613;28;20029;-86
2021/03/10 05:02:55;;;;;;;94.30;35.25;;;-0.60;56.40;;;;;;5071867;28;20016;-85
2021/03/10 05:05:21;;;;;;;102.13;34.67;;;-0.50;56.40;;;;;;5072030;28;20029;-85
2021/03/10 05:07:47;;;;;;;109.40;34.85;;;-0.50;56.40;;;;;;5071401;28;20024;-82
2021/03/10 05:10:14;;;;;;;85.05;33.53;;;-0.40;56.40;;;;;;5070683;28;20040;-86
2021/03/10 05:12:40;;;;;;;85.60;33.50;;;-0.30;56.30;;;;;;5067723;28;20486;-86
2021/03/10 05:15:07;;;;;;;86.63;34.00;;;-0.20;56.10;;;;;;5071528;28;20141;-85
2021/03/10 05:17:33;;;;;;;88.90;34.63;;;-0.20;55.90;;;;;;5071287;28;20049;-85
2021/03/10 05:19:59;;;;;;;97.53;36.05;;;-0.10;55.80;;;;;;5067682;28;20021;-87
2021/03/10 05:22:26;;;;;;;87.82;34.22;;;0.00;55.80;;;;;;5060646;28;20058;-86
2021/03/10 05:24:51;;;;;;;70.50;29.38;;;0.00;55.60;;;;;;5065057;28;20040;-86
2021/03/10 05:27:17;;;;;;;74.60;32.92;;;0.10;55.50;;;;;;5065274;28;20050;-85
2021/03/10 05:29:44;;;;;;;85.45;33.78;;;0.20;55.40;;;;;;5065052;28;20028;-84
2021/03/10 05:32:10;;;;;;;93.68;39.67;;;0.30;55.40;;;;;;5065543;28;20025;-85
2021/03/10 05:34:35;;;;;;;120.97;50.63;;;0.40;55.30;;;;;;5065623;28;20013;-86
2021/03/10 05:37:01;;;;;;;105.10;43.85;;;0.40;55.20;;;;;;5062802;28;20092;-87
2021/03/10 05:39:27;;;;;;;103.80;43.33;;;0.50;55.20;;;;;;5062887;28;20087;-86
2021/03/10 05:41:55;;;;;;;96.70;40.92;;;0.60;55.10;;;;;;5061161;28;20029;-87
2021/03/10 05:44:22;;;;;;;76.32;34.63;;;0.70;55.00;;;;;;5061971;28;20021;-86
2021/03/10 05:46:47;;;;;;;82.50;34.70;;;0.80;54.80;;;;;;5061759;28;20029;-85
2021/03/10 05:49:13;;;;;;;68.78;30.77;;;0.80;54.60;;;;;;5062632;28;20509;-85
2021/03/10 05:51:39;;;;;;;68.53;30.90;;;0.90;54.80;;;;;;5061699;28;20032;-85
2021/03/10 05:54:05;;;;;;;58.60;28.20;;;0.90;54.40;;;;;;5061892;28;20120;-86
2021/03/10 05:56:31;;;;;;;72.13;28.20;;;1.00;54.90;;;;;;5060132;28;20025;-86
2021/03/10 05:58:59;;;;;;;72.25;32.90;;;1.10;54.20;;;;;;5058917;28;20021;-85
2021/03/10 06:01:25;;;;;;;43.58;20.63;;;1.20;54.10;;;;;;5057270;28;20402;-85
2021/03/10 06:03:56;;;;;;;36.25;16.60;;;1.30;53.90;;;;;;5057972;28;20021;-86
2021/03/10 06:06:22;;;;;;;21.17;11.38;;;1.40;53.60;;;;;;5054889;28;20033;-86
2021/03/10 06:08:48;;;;;;;23.48;11.27;;;1.50;53.90;;;;;;5054592;28;20032;-86
2021/03/10 06:11:26;;;;;;;27.20;10.10;;;1.60;53.00;;;;;;5053826;28;20025;-86
2021/03/10 06:13:54;;;;;;;29.58;10.30;;;1.80;52.80;;;;;;5054357;28;20182;-86
2021/03/10 06:16:24;;;;;;;26.67;10.18;;;1.90;52.60;;;;;;5055177;28;20028;-86
2021/03/10 06:19:01;;;;;;;24.20;10.02;;;2.00;52.40;;;;;;5055942;28;20021;-86
2021/03/10 06:21:28;;;;;;;32.50;10.75;;;2.10;52.30;;;;;;5056228;28;20115;-88
2021/03/10 06:23:58;;;;;;;22.08;10.27;;;2.20;52.20;;;;;;5055745;28;20025;-86
2021/03/10 06:26:28;;;;;;;35.47;11.43;;;2.20;52.00;;;;;;5055329;28;20108;-85
2021/03/10 06:28:56;;;;;;;21.15;10.85;;;2.30;51.80;;;;;;5055824;28;20366;-87
2021/03/10 06:31:29;;;;;;;20.73;10.02;;;2.40;51.80;;;;;;5067898;28;20021;-87
2021/03/10 06:34:09;;;;;;;46.90;10.35;;;2.50;51.50;;;;;;5064368;28;20431;-88
2021/03/10 06:36:55;;;;;;;29.27;9.38;;;2.60;51.30;;;;;;5061922;28;20017;-89
2021/03/10 06:39:31;;;;;;;15.07;8.52;;;2.80;51.10;;;;;;5068200;28;20062;-87
2021/03/10 06:41:58;;;;;;;13.70;8.05;;;2.90;50.80;;;;;;5071690;28;20409;-86
2021/03/10 06:44:25;;;;;;;21.35;9.13;;;3.00;50.60;;;;;;5068261;28;20028;-87
2021/03/10 06:46:55;;;;;;;21.98;9.45;;;3.10;50.40;;;;;;5069986;28;20030;-87
2021/03/10 06:49:22;;;;;;;24.10;10.93;;;3.30;50.00;;;;;;5072002;28;20048;-88
2021/03/10 06:51:56;;;;;;;34.45;13.05;;;3.40;49.80;;;;;;5083645;28;20051;-86
2021/03/10 06:54:24;;;;;;;43.10;15.10;;;3.50;49.60;;;;;;5082398;28;20024;-86
2021/03/10 06:57:07;;;;;;;33.30;15.13;;;3.50;49.50;;;;;;5079116;28;20119;-87
2021/03/10 06:59:39;;;;;;;27.98;14.40;;;3.60;49.30;;;;;;5083260;28;20020;-89
2021/03/10 07:02:08;;;;;;;72.47;18.85;;;3.70;49.40;;;;;;5082981;28;20408;-86
2021/03/10 07:04:36;;;;;;;39.53;17.88;;;3.80;49.40;;;;;;5082671;28;20019;-87
2021/03/10 07:07:03;;;;;;;40.60;17.00;;;4.00;49.20;;;;;;5082192;28;20035;-87
2021/03/10 07:09:30;;;;;;;36.88;16.63;;;4.00;48.70;;;;;;5081806;28;20484;-88
2021/03/10 07:11:56;;;;;;;29.77;14.63;;;4.10;48.40;;;;;;5081937;28;20024;-87
2021/03/10 07:14:22;;;;;;;30.85;14.05;;;4.20;48.00;;;;;;5082309;28;20048;-88
2021/03/10 07:16:48;;;;;;;25.35;13.32;;;4.40;47.70;;;;;;5080372;28;20146;-86
2021/03/10 07:19:13;;;;;;;29.65;12.60;;;4.50;47.40;;;;;;5078853;28;20054;-86
2021/03/10 07:21:50;;;;;;;23.23;10.75;;;4.70;47.20;;;;;;5084476;28;20024;-87
2021/03/10 07:24:20;;;;;;;22.55;9.82;;;4.90;46.60;;;;;;5087689;28;20017;-85
2021/03/10 07:26:46;;;;;;;18.63;9.32;;;5.20;46.40;;;;;;5082275;28;20028;-85
2021/03/10 07:29:13;;;;;;;27.05;9.88;;;5.40;45.80;;;;;;5077125;28;20025;-88
2021/03/10 07:31:39;;;;;;;20.13;9.15;;;5.60;45.30;;;;;;5077789;28;20020;-85
2021/03/10 07:34:05;;;;;;;24.25;8.95;;;5.80;44.90;;;;;;5078058;28;20020;-86
2021/03/10 07:36:42;;;;;;;30.73;9.27;;;6.00;44.50;;;;;;5077078;28;20020;-87
2021/03/10 07:39:26;;;;;;;24.17;8.52;;;6.30;43.80;;;;;;5076453;28;20028;-87
2021/03/10 07:41:53;;;;;;;17.77;7.45;;;6.50;43.20;;;;;;5078313;28;20020;-87
2021/03/10 07:44:24;;;;;;;17.30;8.40;;;6.70;43.00;;;;;;5075521;28;20073;-87
2021/03/10 07:47:11;;;;;;;28.27;8.10;;;6.90;42.50;;;;;;5075772;28;20025;-86
2021/03/10 07:49:41;;;;;;;20.75;8.25;;;7.00;42.30;;;;;;5077208;28;20127;-86
2021/03/10 07:52:12;;;;;;;12.70;7.35;;;7.40;42.10;;;;;;5076240;28;20472;-87
2021/03/10 07:54:40;;;;;;;24.45;7.47;;;7.70;41.50;;;;;;5080947;28;20021;-86
2021/03/10 07:57:15;;;;;;;12.32;7.22;;;7.90;41.40;;;;;;5078644;28;20056;-86
2021/03/10 07:59:59;;;;;;;20.95;6.78;;;8.20;40.80;;;;;;5079833;28;20474;-87
2021/03/10 08:02:26;;;;;;;13.77;7.30;;;8.50;40.00;;;;;;5074819;28;20037;-85
2021/03/10 08:05:01;;;;;;;12.60;6.60;;;8.80;39.70;;;;;;5060211;28;20079;-86
2021/03/10 08:07:31;;;;;;;19.50;7.20;;;9.00;38.70;;;;;;5065193;28;20074;-89
2021/03/10 08:09:57;;;;;;;18.77;6.82;;;9.10;38.60;;;;;;5057196;28;20211;-86
2021/03/10 08:12:37;;;;;;;16.58;7.35;;;9.20;38.50;;;;;;5056683;28;20053;-85
2021/03/10 08:15:05;;;;;;;16.15;6.90;;;9.30;37.80;;;;;;5055545;28;20119;-86
2021/03/10 08:17:31;;;;;;;14.23;6.13;;;9.30;37.50;;;;;;5055774;28;20025;-88
2021/03/10 08:20:02;;;;;;;11.10;6.28;;;9.40;37.40;;;;;;5056055;28;20025;-86
2021/03/10 08:22:30;;;;;;;14.98;6.78;;;9.70;37.00;;;;;;5055585;28;20013;-86
2021/03/10 08:24:58;;;;;;;14.70;5.45;;;10.00;36.90;;;;;;5056243;28;20062;-87
2021/03/10 08:27:29;;;;;;;36.95;9.18;;;10.50;36.50;;;;;;5056693;28;20070;-86
2021/03/10 08:29:55;;;;;;;21.65;7.18;;;10.90;35.90;;;;;;5054910;28;20025;-85
2021/03/10 08:32:27;;;;;;;20.73;8.45;;;11.40;35.90;;;;;;5055756;28;20028;-87
2021/03/10 08:34:59;;;;;;;36.65;9.95;;;12.00;35.20;;;;;;5057083;28;20493;-85
2021/03/10 08:37:25;;;;;;;34.20;9.93;;;12.70;35.00;;;;;;5065786;28;20041;-85
2021/03/10 08:39:51;;;;;;;25.80;10.50;;;13.60;34.60;;;;;;5065119;28;20023;-86
2021/03/10 08:42:22;;;;;;;20.67;7.40;;;14.40;33.80;;;;;;5060992;28;20021;-86
2021/03/10 08:44:49;;;;;;;22.92;9.52;;;15.30;32.20;;;;;;5060124;28;20009;-87
2021/03/10 08:47:17;;;;;;;11.20;5.75;;;16.00;31.60;;;;;;5063482;28;20086;-86
2021/03/10 08:49:44;;;;;;;37.50;7.95;;;16.70;30.50;;;;;;5063297;28;20025;-86
2021/03/10 08:52:15;;;;;;;26.15;8.02;;;17.20;29.70;;;;;;5064213;28;20049;-85
2021/03/10 08:54:56;;;;;;;18.45;7.28;;;17.70;29.10;;;;;;5056316;28;20023;-85
2021/03/10 08:57:30;;;;;;;21.27;5.15;;;18.20;28.00;;;;;;5064586;28;20463;-86
2021/03/10 09:00:00;;;;;;;19.63;5.38;;;18.50;27.80;;;;;;5065506;28;20027;-86
2021/03/10 09:02:28;;;;;;;16.25;6.90;;;19.00;27.50;;;;;;5061674;28;20363;-86
2021/03/10 09:04:55;;;;;;;11.23;4.38;;;19.50;27.00;;;;;;5063704;28;20019;-87
2021/03/10 09:07:21;;;;;;;20.20;7.53;;;20.00;26.50;;;;;;5062213;28;20090;-85
2021/03/10 09:09:52;;;;;;;71.60;10.25;;;20.30;26.00;;;;;;5064534;28;20031;-86
2021/03/10 09:12:18;;;;;;;19.95;10.65;;;20.40;25.80;;;;;;5062830;28;20066;-86
2021/03/10 09:14:44;;;;;;;23.63;9.40;;;20.40;25.30;;;;;;5061972;28;20040;-86
2021/03/10 09:17:10;;;;;;;27.33;9.18;;;19.90;25.10;;;;;;5064970;28;20025;-85
2021/03/10 09:19:41;;;;;;;17.77;7.65;;;19.60;25.30;;;;;;5062030;28;20067;-85
2021/03/10 09:22:14;;;;;;;5.80;4.30;;;19.80;25.20;;;;;;5064628;28;20029;-86
2021/03/10 09:24:54;;;;;;;15.48;5.22;;;20.30;25.00;;;;;;5061099;28;20019;-86
2021/03/10 09:27:23;;;;;;;39.58;5.93;;;20.80;24.60;;;;;;5063507;28;20108;-85
2021/03/10 09:29:57;;;;;;;12.30;4.80;;;21.30;24.70;;;;;;5064051;28;20032;-86
2021/03/10 09:32:24;;;;;;;6.32;4.10;;;21.70;24.50;;;;;;5068413;28;20028;-87
2021/03/10 09:34:53;;;;;;;8.88;3.90;;;22.10;24.40;;;;;;5059254;28;20031;-85
2021/03/10 09:37:24;;;;;;;5.93;3.50;;;22.40;24.10;;;;;;5064983;28;20489;-86
2021/03/10 09:39:52;;;;;;;5.90;3.45;;;22.60;23.60;;;;;;5063394;28;20027;-85
2021/03/10 09:42:19;;;;;;;4.97;3.85;;;22.80;23.50;;;;;;5062582;28;20359;-86
2021/03/10 09:44:51;;;;;;;6.35;3.33;;;23.00;23.50;;;;;;5057099;28;20025;-86
2021/03/10 09:47:24;;;;;;;6.82;4.15;;;23.30;23.30;;;;;;5062488;28;20044;-84
2021/03/10 09:49:52;;;;;;;7.93;4.00;;;23.70;23.20;;;;;;5061850;28;20482;-85
2021/03/10 09:52:30;;;;;;;5.43;3.50;;;24.10;23.00;;;;;;5062734;28;20496;-85
2021/03/10 09:54:56;;;;;;;22.30;5.60;;;24.20;22.70;;;;;;5061576;28;20150;-85
2021/03/10 09:57:29;;;;;;;17.92;3.85;;;24.40;22.50;;;;;;5060440;28;20056;-85
2021/03/10 09:59:58;;;;;;;18.80;4.80;;;24.60;22.30;;;;;;5064334;28;20035;-85
2021/03/10 10:02:25;;;;;;;7.13;3.22;;;24.70;22.10;;;;;;5061276;28;20021;-86
2021/03/10 10:05:04;;;;;;;4.60;3.00;;;24.90;22.00;;;;;;5063364;28;20020;-85
2021/03/10 10:07:31;;;;;;;5.47;3.20;;;24.90;22.10;;;;;;5063468;28;20020;-85
2021/03/10 10:09:57;;;;;;;5.50;3.40;;;24.70;21.60;;;;;;5064808;28;20446;-86
2021/03/10 10:12:24;;;;;;;8.25;3.92;;;24.20;21.60;;;;;;5072332;28;20036;-85
2021/03/10 10:14:50;;;;;;;10.70;5.25;;;24.00;21.60;;;;;;5075778;28;20135;-85
2021/03/10 10:17:16;;;;;;;7.70;3.92;;;23.90;21.60;;;;;;5068817;28;20020;-87
2021/03/10 10:19:43;;;;;;;11.82;4.07;;;23.80;21.60;;;;;;5066238;28;20100;-86
2021/03/10 10:22:09;;;;;;;66.80;8.80;;;23.90;21.50;;;;;;5067006;28;20008;-87
2021/03/10 10:24:35;;;;;;;14.95;4.57;;;23.80;21.60;;;;;;5067223;28;20099;-85
2021/03/10 10:27:01;;;;;;;19.05;3.88;;;23.80;21.50;;;;;;5064856;28;20036;-85
2021/03/10 10:29:27;;;;;;;8.90;3.50;;;24.00;21.40;;;;;;5066236;28;20025;-85
2021/03/10 10:31:53;;;;;;;16.00;4.82;;;24.20;21.40;;;;;;5064987;28;20100;-85
2021/03/10 10:34:19;;;;;;;8.07;3.60;;;24.60;21.30;;;;;;5067144;28;20013;-85
2021/03/10 10:36:45;;;;;;;7.00;4.25;;;24.70;21.70;;;;;;5066210;28;20028;-83
2021/03/10 10:39:10;;;;;;;8.40;4.70;;;24.70;21.00;;;;;;5071725;28;20028;-85
2021/03/10 10:41:36;;;;;;;18.27;6.95;;;24.80;20.90;;;;;;5076859;28;20020;-86
2021/03/10 10:44:02;;;;;;;11.75;5.90;;;24.90;20.80;;;;;;5069890;28;20047;-86
2021/03/10 10:46:28;;;;;;;14.70;5.05;;;24.90;20.60;;;;;;5070443;28;20083;-85
2021/03/10 10:48:54;;;;;;;14.95;6.68;;;25.10;20.60;;;;;;5064904;28;20024;-85
2021/03/10 10:51:21;;;;;;;39.40;6.63;;;25.10;20.40;;;;;;5055438;28;20120;-86
2021/03/10 10:53:48;;;;;;;14.20;7.75;;;25.20;20.40;;;;;;5056421;28;20300;-85
2021/03/10 10:56:13;;;;;;;11.10;6.05;;;25.30;20.30;;;;;;5056464;28;20107;-86
2021/03/10 10:58:39;;;;;;;11.88;6.43;;;25.10;20.20;;;;;;5056369;28;20347;-84
2021/03/10 11:01:05;;;;;;;10.45;4.75;;;25.10;20.30;;;;;;5056606;28;20435;-85
2021/03/10 11:03:31;;;;;;;20.63;6.70;;;25.10;20.40;;;;;;5056395;28;20056;-85
2021/03/10 11:05:56;;;;;;;17.27;8.07;;;24.90;20.50;;;;;;5056716;28;20021;-84
2021/03/10 11:08:22;;;;;;;16.48;6.80;;;24.70;20.60;;;;;;5063086;28;20024;-85
2021/03/10 11:10:48;;;;;;;11.40;5.28;;;24.70;20.70;;;;;;5064196;28;20017;-86
2021/03/10 11:13:14;;;;;;;12.10;5.00;;;24.60;20.80;;;;;;5066660;28;20040;-87
2021/03/10 11:15:39;;;;;;;6.45;4.60;;;24.60;20.80;;;;;;5064757;28;20111;-82
2021/03/10 11:18:05;;;;;;;8.77;4.85;;;24.60;20.80;;;;;;5064629;28;20378;-86
2021/03/10 11:20:31;;;;;;;11.30;5.95;;;24.70;20.70;;;;;;5061058;28;20013;-86
2021/03/10 11:22:57;;;;;;;10.77;4.57;;;24.40;20.70;;;;;;5067040;28;20021;-85
2021/03/10 11:25:22;;;;;;;14.57;6.10;;;24.40;20.70;;;;;;5056081;28;20096;-85
2021/03/10 11:27:48;;;;;;;7.47;5.35;;;24.50;20.60;;;;;;5055833;28;20035;-85
2021/03/10 11:30:23;;;;;;;9.27;4.55;;;24.60;20.70;;;;;;5051058;28;20025;-88
2021/03/10 11:35:49;;;;;;;18.90;5.03;;;25.10;20.40;;;;;;5044481;28;20053;-86
2021/03/10 11:38:15;;;;;;;25.38;4.80;;;25.20;20.50;;;;;;5051287;28;20052;-86
2021/03/10 11:40:41;;;;;;;14.25;5.40;;;25.20;20.50;;;;;;5055816;28;20048;-84
2021/03/10 11:43:08;;;;;;;14.32;4.28;;;25.40;20.40;;;;;;5053449;28;20175;-85
2021/03/10 11:45:33;;;;;;;12.50;4.40;;;25.70;20.40;;;;;;5054309;28;20359;-86
2021/03/10 11:48:00;;;;;;;12.20;4.40;;;26.00;20.40;;;;;;5055845;28;20025;-85
2021/03/10 11:50:26;;;;;;;5.05;3.38;;;26.00;20.30;;;;;;5052680;28;20017;-86
2021/03/10 11:52:51;;;;;;;14.40;3.97;;;25.90;20.10;;;;;;5056356;28;20024;-85
2021/03/10 11:55:17;;;;;;;7.80;5.25;;;25.90;20.00;;;;;;5054650;28;20032;-85
2021/03/10 11:57:43;;;;;;;16.63;4.68;;;25.70;20.00;;;;;;5054801;28;20489;-85
2021/03/10 12:00:09;;;;;;;12.85;5.22;;;25.50;20.00;;;;;;5054094;28;20305;-85
2021/03/10 12:02:35;;;;;;;13.63;5.30;;;25.40;20.00;;;;;;5049775;28;20516;-86
2021/03/10 12:05:00;;;;;;;6.57;4.40;;;25.40;20.00;;;;;;5049204;28;20028;-86
2021/03/10 12:07:26;;;;;;;9.30;4.15;;;25.60;20.00;;;;;;5049325;28;20367;-86
2021/03/10 12:09:52;;;;;;;5.50;3.65;;;25.50;19.90;;;;;;5055258;28;20021;-86
2021/03/10 12:12:19;;;;;;;5.60;3.60;;;25.20;20.00;;;;;;5054152;28;20529;-88
2021/03/10 12:14:45;;;;;;;6.50;4.20;;;25.10;20.00;;;;;;5054881;28;20044;-84
2021/03/10 12:17:11;;;;;;;20.05;6.38;;;25.00;20.00;;;;;;5055510;28;20029;-86
2021/03/10 12:19:38;;;;;;;18.98;5.65;;;25.00;19.90;;;;;;5049863;28;21012;-84
2021/03/10 12:22:05;;;;;;;9.45;4.95;;;24.90;19.80;;;;;;5050728;28;20486;-86
2021/03/10 12:24:31;;;;;;;13.93;4.32;;;24.90;19.90;;;;;;5055111;28;20063;-85
2021/03/10 12:26:57;;;;;;;11.20;4.38;;;24.80;19.80;;;;;;5053440;28;20478;-87
2021/03/10 12:29:22;;;;;;;7.00;4.30;;;24.50;19.80;;;;;;5053122;28;20060;-84
2021/03/10 12:31:48;;;;;;;5.35;3.55;;;24.40;19.90;;;;;;5055857;28;20115;-84
2021/03/10 12:34:14;;;;;;;6.45;3.08;;;24.30;19.80;;;;;;5052933;28;20462;-86
2021/03/10 12:36:40;;;;;;;7.80;3.45;;;24.30;19.80;;;;;;5048043;28;20029;-86
2021/03/10 12:39:06;;;;;;;15.93;4.90;;;24.30;19.60;;;;;;5054980;28;20031;-86
2021/03/10 12:41:32;;;;;;;14.98;5.07;;;24.30;19.80;;;;;;5053024;28;20025;-86